Terminal Aerodrome Forecast
Issued by NWS Pocatello, ID

Home | Current Version | Previous Version | Text Only | Print | Product List | Glossary On
Versions: 1 2 3 4 5 6 7 8 9 10 11 12
000
FTUS45 KPIH 311100
TAFBYI
TAF
KBYI 311120Z 3112/0112 04004KT P6SM BKN200
     FM311700 24010G15KT P6SM SCT120 BKN200
     FM010000 17008KT P6SM SCT070 BKN120
     FM010600 13008KT P6SM VCSH SCT070 BKN120=

USA.gov is the U.S. government's official web portal to all federal, state and local government web resources and services.